Time;durP1;ratioP1;P1;durP2;ratioP2;P2;SDS_P1;SDS_P2;PMS_P1;PMS_P2;Temp;Humidity;BMP_temperature;BMP_pressure;BME280_temperature;BME280_humidity;BME280_pressure;Samples;Min_cycle;Max_cycle;Signal;HPM_P1;HPM_P2
2023/09/01 00:01:53;;;;;;;3.28;1.52;;;;;;;-145.69;42.89;51917.63;5132978;28;20705;-80
2023/09/01 00:04:21;;;;;;;3.20;1.30;;;;;;;-145.69;42.82;51889.91;5133401;27;20224;-81
2023/09/01 00:06:48;;;;;;;3.30;1.30;;;;;;;-145.69;43.00;51909.72;5132980;27;20205;-80
2023/09/01 00:09:14;;;;;;;2.88;1.20;;;;;;;-145.69;43.20;51895.84;5133315;28;20205;-81
2023/09/01 00:11:41;;;;;;;3.80;1.50;;;;;;;-145.69;43.24;51899.81;5133242;27;20670;-81
2023/09/01 00:14:07;;;;;;;2.15;1.17;;;;;;;-145.69;43.43;51891.88;5133565;28;20204;-83
2023/09/01 00:16:34;;;;;;;6.90;1.23;;;;;;;-145.69;43.36;51878.03;5133292;27;20626;-81
2023/09/01 00:19:00;;;;;;;3.95;1.17;;;;;;;-145.69;42.84;51885.94;5133428;27;20732;-81
2023/09/01 00:21:28;;;;;;;3.20;1.25;;;;;;;-145.69;42.72;51874.06;5137207;27;20203;-81
2023/09/01 00:23:56;;;;;;;4.03;1.13;;;;;;;-145.69;42.75;51901.78;5137168;27;20673;-81
2023/09/01 00:26:23;;;;;;;7.78;1.10;;;;;;;-145.69;43.28;51899.81;5137302;27;20196;-80
2023/09/01 00:28:49;;;;;;;2.10;1.00;;;;;;;-145.69;42.41;51901.78;5137054;27;20207;-80
2023/09/01 00:31:17;;;;;;;2.60;1.10;;;;;;;-145.69;42.47;51860.22;5137247;27;20203;-80
2023/09/01 00:33:43;;;;;;;3.33;0.88;;;;;;;-145.69;42.18;51901.78;5136638;27;20213;-81
2023/09/01 00:36:10;;;;;;;1.92;1.27;;;;;;;-145.69;42.65;51862.19;5137032;27;20284;-81
2023/09/01 00:38:38;;;;;;;3.92;1.00;;;;;;;-145.69;42.63;51897.84;5137075;27;20224;-81
2023/09/01 00:41:04;;;;;;;5.43;1.50;;;;;;;-145.69;43.20;51893.88;5136854;27;20200;-81
2023/09/01 00:43:31;;;;;;;6.88;1.42;;;;;;;-145.69;42.91;51858.22;5136713;27;20579;-81
2023/09/01 00:45:59;;;;;;;4.47;1.25;;;;;;;-145.69;43.08;51901.78;5137349;27;20224;-81
2023/09/01 00:48:26;;;;;;;4.28;1.08;;;;;;;-145.69;43.29;51870.13;5136352;27;20193;-80
2023/09/01 00:50:52;;;;;;;4.13;0.98;;;;;;;-145.69;42.94;51880.00;5133989;27;20203;-81
2023/09/01 00:53:19;;;;;;;2.28;1.00;;;;;;;-145.69;42.19;51885.94;5136632;27;20200;-81
2023/09/01 00:55:48;;;;;;;3.40;1.13;;;;;;;-145.69;42.44;51870.13;5136463;27;20207;-80
2023/09/01 00:58:15;;;;;;;3.17;1.00;;;;;;;-145.69;42.62;51882.00;5136559;27;20196;-81
2023/09/01 01:00:42;;;;;;;2.83;1.05;;;;;;;-145.69;42.77;51878.03;5134873;27;20639;-80
2023/09/01 01:03:10;;;;;;;1.35;0.95;;;;;;;-145.69;42.97;51862.19;5133225;27;20227;-80
2023/09/01 01:05:44;;;;;;;4.55;1.35;;;;;;;-145.69;42.23;51882.00;5132540;27;20224;-80
2023/09/01 01:08:19;;;;;;;2.75;1.27;;;;;;;-145.69;42.79;51897.84;5136158;27;20555;-81
2023/09/01 01:10:53;;;;;;;4.47;1.20;;;;;;;-145.69;42.72;51882.00;5136695;27;20196;-80
2023/09/01 01:13:21;;;;;;;3.75;1.02;;;;;;;-145.69;42.53;51864.16;5132461;27;20196;-80
2023/09/01 01:15:51;;;;;;;2.88;1.00;;;;;;;-145.69;43.52;51885.94;5136499;27;20200;-81
2023/09/01 01:18:19;;;;;;;1.13;1.00;;;;;;;-145.69;42.50;51862.19;5136305;27;20284;-81
2023/09/01 01:20:52;;;;;;;4.50;1.23;;;;;;;-145.69;42.21;51887.94;5136707;27;20292;-81
2023/09/01 01:23:20;;;;;;;4.07;0.93;;;;;;;-145.69;42.97;51870.13;5135546;27;20200;-82
2023/09/01 01:25:49;;;;;;;1.92;0.90;;;;;;;-145.69;41.72;51876.06;5120216;27;20217;-81
2023/09/01 01:28:16;;;;;;;2.10;0.95;;;;;;;-145.69;42.14;51840.41;5135512;27;20200;-81
2023/09/01 01:30:43;;;;;;;1.88;0.77;;;;;;;-145.69;42.18;51874.06;5135938;27;20196;-81
2023/09/01 01:33:26;;;;;;;4.50;0.93;;;;;;;-145.69;42.60;51885.94;5135688;27;20192;-80
2023/09/01 01:36:05;;;;;;;13.75;1.52;;;;;;;-145.69;42.87;51880.00;5136036;27;20295;-80
2023/09/01 01:38:39;;;;;;;2.30;0.98;;;;;;;-145.69;42.82;51862.19;5135635;27;20196;-80
2023/09/01 01:41:10;;;;;;;2.05;1.20;;;;;;;-145.69;42.72;51883.97;5135884;27;20204;-82
2023/09/01 01:43:38;;;;;;;3.28;0.90;;;;;;;-145.69;42.82;51882.00;5135558;27;20574;-81
2023/09/01 01:46:05;;;;;;;3.08;0.80;;;;;;;-145.69;43.66;51909.72;5135396;27;20235;-82
2023/09/01 01:48:37;;;;;;;1.67;0.80;;;;;;;-145.69;43.11;51887.94;5135666;27;20554;-80
2023/09/01 01:51:05;;;;;;;4.25;1.10;;;;;;;-145.69;43.48;51889.91;5135440;27;20529;-82
2023/09/01 01:53:34;;;;;;;1.83;0.98;;;;;;;-145.69;43.66;51899.81;5136059;27;20587;-81
2023/09/01 01:56:01;;;;;;;3.25;1.13;;;;;;;-145.69;43.25;51887.94;5136233;27;20695;-80
2023/09/01 01:58:27;;;;;;;2.55;1.17;;;;;;;-145.69;43.99;51876.06;5135424;27;20277;-82
2023/09/01 02:00:54;;;;;;;1.80;0.95;;;;;;;-145.69;43.38;51901.78;5136333;27;20242;-81
2023/09/01 02:03:20;;;;;;;4.90;1.05;;;;;;;-145.69;42.96;51860.22;5135092;27;20203;-81
2023/09/01 02:05:47;;;;;;;4.15;1.13;;;;;;;-145.69;43.43;51878.03;5135176;27;20630;-80
2023/09/01 02:08:14;;;;;;;2.20;0.98;;;;;;;-145.69;43.27;51870.13;5134918;27;20647;-82
2023/09/01 02:10:42;;;;;;;3.00;1.20;;;;;;;-145.69;43.69;51858.22;5135257;27;20536;-81
2023/09/01 02:13:08;;;;;;;2.15;0.90;;;;;;;-145.69;43.66;51880.00;5134800;27;20221;-80
2023/09/01 02:15:35;;;;;;;3.13;1.13;;;;;;;-145.69;43.94;51848.34;5134928;27;20204;-81
2023/09/01 02:18:02;;;;;;;1.52;0.88;;;;;;;-145.69;44.29;51876.06;5135422;27;20200;-80
2023/09/01 02:20:30;;;;;;;4.82;1.00;;;;;;;-145.69;44.21;51885.94;5135046;27;20231;-81
2023/09/01 02:22:57;;;;;;;1.40;1.00;;;;;;;-145.69;43.99;51878.03;5135182;27;20655;-82
2023/09/01 02:25:23;;;;;;;3.20;1.05;;;;;;;-145.69;43.94;51864.16;5134944;27;20595;-82
2023/09/01 02:27:51;;;;;;;2.75;1.10;;;;;;;-145.69;44.78;51866.16;5134979;27;20656;-81
2023/09/01 02:30:18;;;;;;;1.75;0.88;;;;;;;-145.69;44.58;51858.22;5134597;27;20273;-82
2023/09/01 02:32:44;;;;;;;5.05;1.02;;;;;;;-145.69;44.16;51893.88;5134959;27;20200;-81
2023/09/01 02:35:18;;;;;;;8.23;1.10;;;;;;;-145.69;44.50;51836.44;5134581;27;20189;-82
2023/09/01 02:37:46;;;;;;;3.88;0.85;;;;;;;-145.69;44.65;51893.88;5134390;27;20307;-81
2023/09/01 02:40:12;;;;;;;1.20;0.77;;;;;;;-145.69;44.45;51885.94;5134818;27;20206;-82
2023/09/01 02:42:40;;;;;;;1.33;0.88;;;;;;;-145.69;45.15;51872.09;5134096;27;20232;-81
2023/09/01 02:45:12;;;;;;;1.88;0.90;;;;;;;-145.69;44.77;51885.94;5135368;27;20231;-81
2023/09/01 02:47:40;;;;;;;4.32;0.90;;;;;;;-145.69;44.52;51878.03;5134208;27;20232;-81
2023/09/01 02:50:07;;;;;;;2.70;0.88;;;;;;;-145.69;45.12;51876.06;5134586;27;20201;-82
2023/09/01 02:52:34;;;;;;;2.08;0.80;;;;;;;-145.69;44.63;51878.03;5134244;27;20647;-82
2023/09/01 02:55:01;;;;;;;2.45;0.77;;;;;;;-145.69;44.91;51862.19;5134407;27;20287;-81
2023/09/01 02:57:27;;;;;;;3.63;0.73;;;;;;;-145.69;45.11;51880.00;5133758;27;20635;-81
2023/09/01 02:59:54;;;;;;;6.45;0.75;;;;;;;-145.69;44.71;51866.16;5133901;27;20197;-81
2023/09/01 03:02:23;;;;;;;2.67;0.98;;;;;;;-145.69;45.10;51868.13;5134522;27;20313;-80
2023/09/01 03:04:52;;;;;;;3.78;0.68;;;;;;;-145.69;44.75;51880.00;5134069;27;20200;-81
2023/09/01 03:07:18;;;;;;;1.20;0.60;;;;;;;-145.69;45.11;51893.88;5133974;27;20204;-81
2023/09/01 03:09:45;;;;;;;0.82;0.63;;;;;;;-145.69;45.69;51889.91;5134762;27;20211;-81
2023/09/01 03:12:16;;;;;;;1.42;0.60;;;;;;;-145.69;44.99;51878.03;5134414;27;20197;-81
2023/09/01 03:14:43;;;;;;;1.52;0.70;;;;;;;-145.69;45.53;51933.47;5127240;27;20232;-81
2023/09/01 03:17:09;;;;;;;2.50;0.70;;;;;;;-145.69;45.77;51882.00;5134211;27;20215;-81
2023/09/01 03:19:38;;;;;;;1.30;0.60;;;;;;;-145.69;45.44;51870.13;5134184;27;20568;-80
2023/09/01 03:22:04;;;;;;;3.78;1.00;;;;;;;-145.69;44.91;51882.00;5133666;27;20623;-81
2023/09/01 03:24:31;;;;;;;0.57;0.57;;;;;;;-145.69;45.04;51880.00;5134302;27;20228;-81
2023/09/01 03:26:57;;;;;;;1.23;0.50;;;;;;;-145.69;44.73;51872.09;5133934;27;20224;-82
2023/09/01 03:29:24;;;;;;;2.13;1.00;;;;;;;-145.69;45.23;51889.91;5134335;27;20201;-82
2023/09/01 03:31:50;;;;;;;0.98;0.57;;;;;;;-145.69;45.21;51882.00;5134389;27;20203;-80
2023/09/01 03:34:17;;;;;;;1.58;0.60;;;;;;;-145.69;44.84;51903.78;5134089;27;20197;-81
2023/09/01 03:36:45;;;;;;;0.60;0.57;;;;;;;-145.69;44.86;51878.03;5132830;27;20558;-81
2023/09/01 03:39:11;;;;;;;2.28;0.60;;;;;;;-145.69;44.94;51870.13;5133868;27;20678;-81
2023/09/01 03:41:38;;;;;;;1.45;0.80;;;;;;;-145.69;45.46;51872.09;5133795;27;20200;-81
2023/09/01 03:44:05;;;;;;;1.63;0.80;;;;;;;-145.69;45.88;51878.03;5133872;28;20232;-81
2023/09/01 03:46:31;;;;;;;1.48;0.60;;;;;;;-145.69;45.85;51870.13;5133255;28;20304;-81
2023/09/01 03:48:58;;;;;;;3.30;0.60;;;;;;;-145.69;45.70;51850.31;5134297;28;20203;-81
2023/09/01 03:51:24;;;;;;;1.35;0.50;;;;;;;-145.69;45.60;51874.06;5134075;28;20196;-80
2023/09/01 03:53:52;;;;;;;0.50;0.50;;;;;;;-145.69;45.93;51866.16;5134139;27;20211;-81
2023/09/01 03:56:20;;;;;;;3.95;0.50;;;;;;;-145.69;45.40;51883.97;5137294;27;20571;-81
2023/09/01 03:58:47;;;;;;;2.00;0.47;;;;;;;-145.69;46.39;51887.94;5136801;27;20441;-81
2023/09/01 04:01:13;;;;;;;0.90;0.60;;;;;;;-145.69;45.87;51897.84;5138688;27;20193;-81
2023/09/01 04:03:43;;;;;;;1.50;0.60;;;;;;;-145.69;45.69;51864.16;5137689;27;20193;-81
2023/09/01 04:06:10;;;;;;;1.02;0.50;;;;;;;-145.69;45.86;51878.03;5137316;27;20254;-81
2023/09/01 04:08:37;;;;;;;1.17;0.68;;;;;;;-145.69;45.79;51911.69;5137589;27;20552;-81
2023/09/01 04:11:05;;;;;;;1.85;0.50;;;;;;;-145.69;46.13;51860.22;5137834;27;20192;-81
2023/09/01 04:13:32;;;;;;;0.55;0.50;;;;;;;-145.69;46.54;51901.78;5137541;27;20189;-82
2023/09/01 04:16:00;;;;;;;1.00;0.68;;;;;;;-145.69;46.42;51893.88;5137796;27;20201;-81
2023/09/01 04:18:26;;;;;;;1.08;0.50;;;;;;;-145.69;46.05;51878.03;5137436;27;20721;-81
2023/09/01 04:20:54;;;;;;;0.60;0.60;;;;;;;-145.69;45.65;51874.06;5137234;27;20193;-81
2023/09/01 04:23:21;;;;;;;0.85;0.63;;;;;;;-145.69;45.94;51878.03;5137215;27;20204;-80
2023/09/01 04:25:48;;;;;;;1.08;0.47;;;;;;;-145.69;45.75;51895.84;5137240;27;20224;-81
2023/09/01 04:28:17;;;;;;;0.90;0.70;;;;;;;-145.69;46.26;51872.09;5137452;27;20203;-81
2023/09/01 04:30:44;;;;;;;0.65;0.65;;;;;;;-145.69;46.11;51870.13;5137593;27;20556;-81
2023/09/01 04:33:15;;;;;;;1.50;0.60;;;;;;;-145.69;45.81;51885.94;5136200;27;20555;-80
2023/09/01 04:35:44;;;;;;;1.00;0.52;;;;;;;-145.69;45.66;51864.16;5137381;27;20200;-80
2023/09/01 04:38:10;;;;;;;0.50;0.50;;;;;;;-145.69;45.75;51856.25;5137210;27;20196;-81
2023/09/01 04:40:37;;;;;;;0.50;0.50;;;;;;;-145.69;45.86;51866.16;5137076;27;20189;-79
2023/09/01 04:43:04;;;;;;;1.95;0.60;;;;;;;-145.69;45.74;51870.13;5136160;27;20224;-82
2023/09/01 04:45:32;;;;;;;0.52;0.40;;;;;;;-145.69;45.95;51858.22;5136475;27;20224;-81
2023/09/01 04:47:58;;;;;;;0.38;0.38;;;;;;;-145.69;45.93;51889.91;5137197;27;20204;-81
2023/09/01 04:50:25;;;;;;;0.75;0.50;;;;;;;-145.69;46.40;51866.16;5137065;27;20533;-81
2023/09/01 04:52:51;;;;;;;0.90;0.50;;;;;;;-145.69;46.40;51885.94;5137071;27;20276;-81
2023/09/01 04:55:18;;;;;;;1.40;0.50;;;;;;;-145.69;46.41;51887.94;5136429;27;20203;-81
2023/09/01 04:57:45;;;;;;;0.82;0.70;;;;;;;-145.69;46.82;51885.94;5136815;27;20200;-81
2023/09/01 05:00:16;;;;;;;0.95;0.30;;;;;;;-145.69;46.23;51866.16;5136539;27;20222;-81
2023/09/01 05:02:47;;;;;;;1.27;0.47;;;;;;;-145.69;46.18;51846.34;5136032;27;20524;-81
2023/09/01 05:05:14;;;;;;;1.33;0.60;;;;;;;-145.69;46.65;51866.16;5124245;27;20201;-80
2023/09/01 05:07:41;;;;;;;0.57;0.43;;;;;;;-145.69;46.27;51854.28;5131442;27;20212;-81
2023/09/01 05:10:09;;;;;;;2.70;0.47;;;;;;;-145.69;45.73;51882.00;5136874;27;20215;-81
2023/09/01 05:12:35;;;;;;;0.40;0.40;;;;;;;-145.69;45.32;51885.94;5135955;27;20663;-81
2023/09/01 05:15:02;;;;;;;1.33;0.65;;;;;;;-145.69;45.22;51862.19;5136211;27;20659;-80
2023/09/01 05:17:29;;;;;;;3.05;0.57;;;;;;;-145.69;45.32;51860.22;5136834;27;20221;-81
2023/09/01 05:19:57;;;;;;;0.70;0.50;;;;;;;-145.69;44.96;51838.44;5136051;27;20196;-81
2023/09/01 05:22:24;;;;;;;1.50;0.60;;;;;;;-145.69;45.62;51832.50;5136109;27;20193;-81
2023/09/01 05:24:50;;;;;;;1.45;0.70;;;;;;;-145.69;46.25;51870.13;5135632;27;20523;-80
2023/09/01 05:27:19;;;;;;;1.80;0.80;;;;;;;-145.69;45.40;51868.13;5135810;27;20276;-81
2023/09/01 05:29:45;;;;;;;2.25;0.60;;;;;;;-145.69;45.18;51856.25;5136446;27;20196;-81
2023/09/01 05:32:12;;;;;;;3.88;0.70;;;;;;;-145.69;45.29;51862.19;5135708;27;20554;-80
2023/09/01 05:34:41;;;;;;;0.77;0.70;;;;;;;-145.69;45.50;51878.03;5136387;27;20208;-81
2023/09/01 05:37:12;;;;;;;1.88;0.60;;;;;;;-145.69;45.41;51846.34;5136545;27;20207;-81
2023/09/01 05:39:38;;;;;;;1.77;0.73;;;;;;;-145.69;45.51;51860.22;5136188;27;20200;-80
2023/09/01 05:42:05;;;;;;;1.50;0.60;;;;;;;-145.69;44.94;51858.22;5135297;27;20227;-82
2023/09/01 05:44:34;;;;;;;2.83;0.60;;;;;;;-145.69;45.26;51854.28;5135700;27;20200;-81
2023/09/01 05:47:00;;;;;;;0.63;0.45;;;;;;;-145.69;45.24;51882.00;5136036;27;20220;-82
2023/09/01 05:49:27;;;;;;;1.05;0.60;;;;;;;-145.69;45.32;51856.25;5135873;27;20228;-81
2023/09/01 05:51:53;;;;;;;2.00;0.60;;;;;;;-145.69;45.78;51897.84;5135596;27;20222;-81
2023/09/01 05:54:21;;;;;;;0.90;0.63;;;;;;;-145.69;45.42;51858.22;5135726;27;20287;-82
2023/09/01 05:56:48;;;;;;;1.92;0.70;;;;;;;-145.69;45.97;51850.31;5135862;27;20205;-81
2023/09/01 05:59:14;;;;;;;1.00;0.50;;;;;;;-145.69;45.88;51850.31;5135837;27;20222;-81
2023/09/01 06:01:41;;;;;;;3.97;1.05;;;;;;;-145.69;46.18;51856.25;5135551;27;20279;-81
2023/09/01 06:04:08;;;;;;;3.35;0.47;;;;;;;-145.69;46.28;51866.16;5135590;27;20289;-81
2023/09/01 06:06:36;;;;;;;1.27;0.80;;;;;;;-145.69;47.14;51846.34;5134885;27;20697;-81
2023/09/01 06:09:04;;;;;;;0.88;0.60;;;;;;;-145.69;46.84;51885.94;5135720;27;20252;-81
2023/09/01 06:11:32;;;;;;;2.55;0.88;;;;;;;-145.69;46.46;51850.31;5134746;27;20670;-82
2023/09/01 06:13:59;;;;;;;2.42;1.02;;;;;;;-145.69;47.48;51878.03;5135761;27;20203;-82
2023/09/01 06:16:26;;;;;;;2.47;0.60;;;;;;;-145.69;47.53;51840.41;5135381;27;20205;-81
2023/09/01 06:18:53;;;;;;;3.42;0.80;;;;;;;-145.69;47.19;51866.16;5134304;27;20584;-82
2023/09/01 06:21:19;;;;;;;3.67;0.88;;;;;;;-145.69;46.96;51880.00;5135025;27;20207;-82
2023/09/01 06:23:47;;;;;;;0.77;0.63;;;;;;;-145.69;47.22;51826.56;5135381;27;20670;-81
2023/09/01 06:26:14;;;;;;;1.23;0.77;;;;;;;-145.69;47.32;51850.31;5134344;27;20687;-82
2023/09/01 06:28:42;;;;;;;1.92;0.80;;;;;;;-145.69;47.75;51830.50;5135193;27;20207;-82
2023/09/01 06:31:09;;;;;;;1.05;0.65;;;;;;;-145.69;47.36;51826.56;5134531;27;20192;-82
2023/09/01 06:33:35;;;;;;;1.90;0.90;;;;;;;-145.69;47.91;51854.28;5135337;27;20201;-81
2023/09/01 06:36:02;;;;;;;1.73;0.60;;;;;;;-145.69;47.45;51842.38;5135071;27;20196;-81
2023/09/01 06:38:28;;;;;;;2.97;0.90;;;;;;;-145.69;47.67;51830.50;5134576;27;20189;-82
2023/09/01 06:40:55;;;;;;;0.90;0.60;;;;;;;-145.69;46.56;51897.84;5134825;27;20566;-81
2023/09/01 06:43:21;;;;;;;1.58;0.65;;;;;;;-145.69;46.91;51834.47;5134438;27;20231;-80
2023/09/01 06:45:49;;;;;;;1.80;0.77;;;;;;;-145.69;46.55;51834.47;5134584;27;20197;-81
2023/09/01 06:48:15;;;;;;;1.23;0.60;;;;;;;-145.69;47.03;51846.34;5134408;27;20196;-81
2023/09/01 06:50:42;;;;;;;2.67;0.80;;;;;;;-145.69;45.85;51838.44;5134117;27;20188;-81
2023/09/01 06:53:08;;;;;;;1.92;0.60;;;;;;;-145.69;46.14;51824.56;5134951;27;20200;-81
2023/09/01 06:55:35;;;;;;;1.45;0.70;;;;;;;-145.69;45.08;51852.28;5134683;27;20678;-81
2023/09/01 06:58:01;;;;;;;2.03;0.80;;;;;;;-145.69;45.57;51832.50;5134663;27;20203;-81
2023/09/01 07:00:29;;;;;;;2.25;0.90;;;;;;;-145.69;45.01;51822.59;5132781;27;20201;-81
2023/09/01 07:02:57;;;;;;;1.48;0.85;;;;;;;-145.69;44.41;51812.69;5134549;27;20201;-80
2023/09/01 07:05:26;;;;;;;1.88;0.77;;;;;;;-145.69;43.94;51802.78;5134758;27;20246;-81
2023/09/01 07:07:53;;;;;;;1.52;0.60;;;;;;;-145.69;43.36;51842.38;5134505;27;20220;-81
2023/09/01 07:10:19;;;;;;;2.28;0.60;;;;;;;-145.69;42.63;51818.63;5134309;27;20205;-81
2023/09/01 07:12:46;;;;;;;2.30;0.68;;;;;;;-145.69;42.34;51826.56;5134414;27;20220;-81
2023/09/01 07:15:13;;;;;;;1.58;0.70;;;;;;;-145.69;42.28;51822.59;5134650;27;20189;-82
2023/09/01 07:17:39;;;;;;;1.45;0.63;;;;;;;-145.69;41.75;51810.72;5134245;27;20566;-81
2023/09/01 07:20:09;;;;;;;1.20;0.60;;;;;;;-145.69;40.85;51798.81;5134735;27;20480;-81
2023/09/01 07:22:36;;;;;;;1.70;0.90;;;;;;;-145.69;41.72;51814.66;5134861;27;20201;-81
2023/09/01 07:25:03;;;;;;;3.33;0.85;;;;;;;-145.69;40.96;51794.88;5134713;27;20197;-80
2023/09/01 07:27:30;;;;;;;1.50;0.70;;;;;;;-145.69;41.75;51781.00;5134113;27;20266;-81
2023/09/01 07:29:56;;;;;;;2.50;0.50;;;;;;;-145.69;41.59;51818.63;5134473;27;20203;-81
2023/09/01 07:32:23;;;;;;;1.50;0.77;;;;;;;-145.69;41.24;51800.81;5134465;27;20193;-80
2023/09/01 07:34:49;;;;;;;3.42;1.30;;;;;;;-145.69;40.87;51806.75;5135662;27;20197;-81
2023/09/01 07:37:20;;;;;;;2.92;0.70;;;;;;;-145.69;41.18;51818.63;5134673;27;20228;-80
2023/09/01 07:39:47;;;;;;;1.83;0.70;;;;;;;-145.69;41.62;51794.88;5114309;28;20289;-79
2023/09/01 07:42:14;;;;;;;1.17;0.70;;;;;;;-145.69;41.55;51786.94;5131680;27;20232;-82
2023/09/01 07:44:40;;;;;;;2.72;0.80;;;;;;;-145.69;41.19;51794.88;5133700;27;20601;-81
2023/09/01 07:47:07;;;;;;;2.08;0.63;;;;;;;-145.69;41.01;51779.03;5134042;27;20601;-81
2023/09/01 07:49:33;;;;;;;1.25;0.80;;;;;;;-145.69;40.83;51824.56;5134035;28;20201;-81
2023/09/01 07:52:00;;;;;;;2.50;0.60;;;;;;;-145.69;40.34;51806.75;5134623;27;20192;-81
2023/09/01 07:54:28;;;;;;;4.85;0.93;;;;;;;-145.69;40.93;51783.00;5134425;28;20205;-82
2023/09/01 07:56:54;;;;;;;2.22;1.00;;;;;;;-145.69;40.60;51806.75;5134821;27;20250;-82
2023/09/01 07:59:21;;;;;;;2.65;0.75;;;;;;;-145.69;40.78;51816.66;5134727;28;20283;-81
2023/09/01 08:01:47;;;;;;;3.83;0.88;;;;;;;-145.69;40.47;51794.88;5134351;28;20670;-82
2023/09/01 08:04:14;;;;;;;1.85;0.90;;;;;;;-145.69;40.40;51802.78;5134713;28;20200;-81
2023/09/01 08:06:40;;;;;;;3.10;0.80;;;;;;;-145.69;39.85;51790.91;5134098;28;20583;-81
2023/09/01 08:09:07;;;;;;;4.32;0.82;;;;;;;-145.69;39.85;51755.25;5134385;27;20193;-82
2023/09/01 08:11:35;;;;;;;2.25;0.80;;;;;;;-145.69;39.47;51786.94;5133873;28;20205;-82
2023/09/01 08:14:01;;;;;;;0.98;0.60;;;;;;;-145.69;39.32;51771.09;5133532;28;20651;-81
2023/09/01 08:16:28;;;;;;;1.77;0.80;;;;;;;-145.69;39.31;51765.16;5134023;28;20201;-81
2023/09/01 08:18:58;;;;;;;2.28;0.70;;;;;;;-145.69;38.24;51790.91;5134210;28;20235;-80
2023/09/01 08:21:25;;;;;;;1.83;0.63;;;;;;;-145.69;38.03;51755.25;5134568;28;20221;-80
2023/09/01 08:23:51;;;;;;;3.60;0.75;;;;;;;-145.69;37.96;51761.22;5134073;27;20201;-82
2023/09/01 08:26:18;;;;;;;2.47;0.88;;;;;;;-145.69;38.02;51777.03;5133769;28;20207;-82
2023/09/01 08:28:46;;;;;;;2.67;0.77;;;;;;;-145.69;37.29;51739.44;5133315;27;20204;-82
2023/09/01 08:31:13;;;;;;;0.90;0.50;;;;;;;-145.69;37.49;51751.31;5133995;27;20204;-83
2023/09/01 08:33:41;;;;;;;1.13;0.60;;;;;;;-145.69;37.39;51763.19;5133751;28;20242;-82
2023/09/01 08:36:08;;;;;;;1.80;0.70;;;;;;;-145.69;37.11;51743.38;5133009;27;20651;-80
2023/09/01 08:38:35;;;;;;;1.00;0.70;;;;;;;-145.69;36.89;51755.25;5133262;28;20193;-81
2023/09/01 08:41:03;;;;;;;1.20;0.55;;;;;;;-145.69;37.43;51727.53;5134975;27;20197;-82
2023/09/01 08:43:34;;;;;;;2.45;0.60;;;;;;;-145.69;37.39;51779.03;5136696;27;20220;-80
2023/09/01 08:46:03;;;;;;;3.22;0.63;;;;;;;-145.69;37.04;51735.47;5137496;27;20220;-80
2023/09/01 08:48:31;;;;;;;1.50;0.50;;;;;;;-145.69;36.80;51719.63;5137396;27;20220;-79
2023/09/01 08:50:57;;;;;;;1.77;0.68;;;;;;;-145.69;36.84;51751.31;5136903;27;20200;-82
2023/09/01 08:53:25;;;;;;;1.40;0.75;;;;;;;-145.69;36.87;51749.31;5137348;27;20201;-81
2023/09/01 08:55:54;;;;;;;0.40;0.40;;;;;;;-145.69;37.40;51761.22;5136987;27;20551;-80
2023/09/01 08:58:26;;;;;;;1.67;0.82;;;;;;;-145.69;37.65;51751.31;5133517;27;20203;-80
2023/09/01 09:00:53;;;;;;;1.45;0.70;;;;;;;-145.69;37.24;51747.34;5120446;27;20197;-80
2023/09/01 09:03:21;;;;;;;1.92;0.70;;;;;;;-145.69;37.13;51747.34;5137161;27;20223;-82
2023/09/01 09:05:49;;;;;;;1.23;0.60;;;;;;;-145.69;37.99;51751.31;5137365;27;20197;-81
2023/09/01 09:08:20;;;;;;;2.45;0.77;;;;;;;-145.69;37.84;51755.25;5136895;27;20307;-81
2023/09/01 09:10:47;;;;;;;1.30;0.60;;;;;;;-145.69;37.24;51715.66;5136625;27;20204;-79
2023/09/01 09:13:23;;;;;;;3.20;0.80;;;;;;;-145.69;35.88;51751.31;5136477;27;20555;-80
2023/09/01 09:16:10;;;;;;;3.72;0.80;;;;;;;-145.69;36.18;51731.50;5136592;27;20203;-80
2023/09/01 09:18:40;;;;;;;0.98;0.50;;;;;;;-145.69;36.29;51733.50;5136147;27;20551;-79
2023/09/01 09:21:24;;;;;;;1.23;0.60;;;;;;;-145.69;36.21;51743.38;5136473;27;20189;-81
2023/09/01 09:23:51;;;;;;;2.88;0.70;;;;;;;-145.69;36.34;51743.38;5136144;27;20192;-82
2023/09/01 09:26:25;;;;;;;1.67;0.60;;;;;;;-145.69;35.95;51743.38;5136584;27;20193;-80
2023/09/01 09:28:51;;;;;;;2.10;0.57;;;;;;;-145.69;36.14;51715.66;5136492;27;20220;-81
2023/09/01 09:31:18;;;;;;;1.73;0.63;;;;;;;-145.69;35.93;51709.72;5136128;27;20193;-81
2023/09/01 09:33:46;;;;;;;1.67;0.52;;;;;;;-145.69;35.10;51713.69;5136205;27;20567;-81
2023/09/01 09:36:13;;;;;;;6.18;0.75;;;;;;;-145.69;35.95;51707.75;5135554;27;20702;-81
2023/09/01 09:38:41;;;;;;;1.00;0.50;;;;;;;-145.69;35.51;51691.91;5135314;27;20201;-81
2023/09/01 09:41:07;;;;;;;1.25;0.68;;;;;;;-145.69;34.63;51719.63;5135831;27;20237;-81
2023/09/01 09:43:44;;;;;;;0.95;0.60;;;;;;;-145.69;35.11;51721.59;5135671;27;20691;-80
2023/09/01 09:46:10;;;;;;;1.60;0.60;;;;;;;-145.69;35.78;51699.81;5135476;27;20433;-79
2023/09/01 09:48:38;;;;;;;1.92;1.10;;;;;;;-145.69;35.67;51703.78;5135761;27;20224;-79
2023/09/01 09:51:07;;;;;;;2.10;0.65;;;;;;;-145.69;35.81;51707.75;5135858;27;20655;-80
2023/09/01 09:53:35;;;;;;;1.77;0.90;;;;;;;-145.69;36.10;51699.81;5135505;27;20200;-79
2023/09/01 09:56:17;;;;;;;3.72;1.48;;;;;;;-145.69;35.13;51691.91;5135181;27;20193;-80
2023/09/01 09:58:47;;;;;;;3.22;1.73;;;;;;;-145.69;34.80;51668.16;5135671;27;20211;-80
2023/09/01 10:01:18;;;;;;;3.00;1.30;;;;;;;-145.69;35.08;51695.88;5135228;27;20197;-78
2023/09/01 10:03:47;;;;;;;1.88;1.00;;;;;;;-145.69;35.26;51715.66;5135857;27;20550;-80
2023/09/01 10:06:17;;;;;;;3.92;1.42;;;;;;;-145.69;34.50;51715.66;5134800;27;20211;-79
2023/09/01 10:08:44;;;;;;;5.45;2.22;;;;;;;-145.69;35.50;51711.72;5135573;27;20224;-80
2023/09/01 10:11:13;;;;;;;7.88;3.90;;;;;;;-145.69;35.16;51723.59;5135247;27;20665;-79
2023/09/01 10:13:43;;;;;;;3.22;1.50;;;;;;;-145.69;35.50;51713.69;5134049;27;20195;-80
2023/09/01 10:16:10;;;;;;;6.78;2.80;;;;;;;-145.69;34.99;51711.72;5135279;27;20269;-78
2023/09/01 10:18:38;;;;;;;8.15;3.72;;;;;;;-145.69;35.15;51711.72;5134836;27;20193;-80
2023/09/01 10:21:05;;;;;;;5.35;2.47;;;;;;;-145.69;35.06;51687.94;5135236;27;20197;-79
2023/09/01 10:23:35;;;;;;;5.15;2.00;;;;;;;-145.69;35.31;51693.88;5134691;27;20189;-79
2023/09/01 10:26:15;;;;;;;2.88;1.23;;;;;;;-145.69;35.59;51699.81;5134922;27;20192;-79
2023/09/01 10:29:01;;;;;;;1.77;0.98;;;;;;;-145.69;34.60;51695.88;5134742;27;20226;-79
2023/09/01 10:31:28;;;;;;;2.10;0.70;;;;;;;-145.69;34.83;51693.88;5135312;27;20593;-79
2023/09/01 10:34:07;;;;;;;0.90;0.57;;;;;;;-145.69;34.64;51682.00;5134428;27;20261;-81
2023/09/01 10:36:35;;;;;;;3.05;0.63;;;;;;;-145.69;34.75;51695.88;5119376;27;20540;-81
2023/09/01 10:39:24;;;;;;;0.90;0.60;;;;;;;-145.69;35.30;51695.88;5134577;27;20189;-79
2023/09/01 10:41:59;;;;;;;1.55;0.60;;;;;;;-145.69;35.11;51707.75;5124990;27;20667;-80
2023/09/01 10:45:05;;;;;;;1.95;0.73;;;;;;;-145.69;34.03;51699.81;5134673;27;20237;-80
2023/09/01 10:47:52;;;;;;;1.52;0.57;;;;;;;-145.69;34.28;51711.72;5134321;27;20275;-83
2023/09/01 10:50:18;;;;;;;1.50;0.47;;;;;;;-145.69;34.66;51713.69;5124067;27;20196;-78
2023/09/01 10:52:46;;;;;;;1.55;0.70;;;;;;;-145.69;34.52;51729.53;5130556;27;20223;-83
2023/09/01 10:55:15;;;;;;;1.85;0.98;;;;;;;-145.69;34.69;51687.94;5114782;28;20253;-81
2023/09/01 10:57:43;;;;;;;1.58;0.60;;;;;;;-145.69;34.24;51699.81;5114080;28;20201;-79
2023/09/01 11:00:25;;;;;;;2.33;0.60;;;;;;;-145.69;33.33;51666.16;5114040;28;20229;-80
2023/09/01 11:02:55;;;;;;;1.02;0.57;;;;;;;-145.69;34.00;51697.84;5122846;27;20189;-79
2023/09/01 11:05:37;;;;;;;1.52;0.50;;;;;;;-145.69;33.67;51672.09;5134163;27;20202;-79
2023/09/01 11:08:12;;;;;;;1.42;0.70;;;;;;;-145.69;33.34;51660.22;5134645;27;20221;-79
2023/09/01 11:10:40;;;;;;;1.85;0.98;;;;;;;-145.69;34.58;51664.19;5134617;27;20651;-81
2023/09/01 11:13:20;;;;;;;4.68;0.63;;;;;;;-145.69;34.91;51672.09;5134771;27;20197;-79
2023/09/01 11:15:47;;;;;;;5.18;0.70;;;;;;;-145.69;34.08;51670.13;5135048;27;20257;-79
2023/09/01 11:18:17;;;;;;;0.82;0.68;;;;;;;-145.69;34.25;51701.81;5134177;27;20200;-82
2023/09/01 11:20:45;;;;;;;0.77;0.55;;;;;;;-145.69;34.95;51682.00;5133631;27;20235;-81
2023/09/01 11:23:11;;;;;;;1.50;0.90;;;;;;;-145.69;33.75;51687.94;5133830;27;20249;-81